Current Weather Conditions: station 63115

sailwx.info

Last reported at 2014-Dec-15 22:18 UTC.
Time now 2014-Dec-20 00:53 UTC

Location: N 61°36' E 001°18'.
View on Google Maps.

See reports from other nearby stations

  
Tides and Currents Weather Stations Pressure Air Temp Water Temp Dewpoint Dewpoint Depression Visibility Wind Speed Wind Dir Waves Ship Positions
date/time (UTC)wind fromknots sea level pressurealtimeterstation pressurevisibilityair tempwater tempwave heightnotes
2014-Dec-19 23:00 290 27 10.8 4.6 5.5
2014-Dec-19 22:00 250 12 10.8 3.8 5.4
2014-Dec-19 21:00 260 24 27.0 4.9 4.9
2014-Dec-19 20:00 260 22 5.4 3.7 5.2
2014-Dec-19 19:00 260 23 10.8 5.4 5.7
2014-Dec-19 18:00 260 24 27.0 4.8 5.8
2014-Dec-19 17:00 280 29 10.8 4.8 5.2
2014-Dec-19 16:00 260 29 1.1 3.9 4.8
2014-Dec-19 15:00 280 15 27.0 6.0 5.0
2014-Dec-19 14:00 260 11 27.0 6.3 5.2
2014-Dec-19 13:00 270 18 27.0 5.7 5.1
2014-Dec-19 12:00 280 20 27.0 4.5 5.3
2014-Dec-19 11:00 260 20 27.0 5.3 5.4
2014-Dec-19 10:00 260 18 27.0 4.9 5.3
2014-Dec-19 09:00 240 20 10.8 5.8 5.7
2014-Dec-19 08:00 230 23 10.8 5.5 5.5
2014-Dec-19 07:00 230 20 27.0 6.4 5.5
2014-Dec-19 06:00 250 22 10.8 4.4 5.0
2014-Dec-19 05:00 240 14 10.8 5.0 5.7
2014-Dec-19 04:00 240 20 10.8 5.3 6.1
2014-Dec-19 03:00 240 20 5.4 5.0 5.4
2014-Dec-19 02:00 220 18 10.8 8.0 4.8
2014-Dec-19 01:00 230 26 10.8 6.3 5.1
2014-Dec-19 00:00 240 17 10.8 5.3 5.0
2014-Dec-18 23:00 240 20 10.8 5.4 5.3
2014-Dec-18 22:00 240 16 10.8 5.8 5.0
2014-Dec-18 21:00 250 20 10.8 5.3 4.9
2014-Dec-18 20:00 230 20 10.8 7.7 5.0
2014-Dec-18 19:00 230 18 10.8 7.3 5.1
2014-Dec-18 18:00 220 20 10.8 8.8 5.2
2014-Dec-18 17:00 230 20 10.8 8.0 5.1
2014-Dec-18 16:00 230 22 10.8 7.0 4.9
2014-Dec-18 15:00 230 20 10.8 7.6 5.0
2014-Dec-18 14:00 250 15 10.8 5.9 5.1
2014-Dec-18 13:00 220 20 10.8 9.1 4.7
2014-Dec-18 12:00 220 22 10.8 8.9 4.6
2014-Dec-18 11:00 220 19 10.8 7.8 4.7
2014-Dec-18 10:00 250 13 10.8 4.8 4.7
2014-Dec-18 09:00 230 19 10.8 7.0 4.6
2014-Dec-18 08:00 240 15 10.8 5.8 4.4
2014-Dec-18 07:00 230 20 10.8 6.8 4.5
2014-Dec-18 06:00 240 16 10.8 5.5 4.8
2014-Dec-18 05:00 230 20 2.2 5.7 4.5
2014-Dec-18 04:00 220 19 10.8 8.1 4.2
2014-Dec-18 03:00 220 20 10.8 7.9 3.5
2014-Dec-18 02:00 200 23 10.8 9.5 3.2
2014-Dec-18 01:00 210 17 10.8 9.2 3.2
2014-Dec-18 00:00 220 17 10.810.4 3.1